Terminal Aerodrome Forecast
Issued by NWS Pittsburgh, PA

Current Version | Previous Version | Graphics & Text | Print | Product List | Glossary On
Versions: 1 2 3 4 5 6 7 8 9 10 11 12 13 14 15 16 17 18 19 20 21 22 23 24 25 26 27 28 29 30 31 32 33 34
207
FTUS41 KPBZ 131724
TAFPIT
TAF
KPIT 131724Z 1318/1424 30017G25KT P6SM VCSH SCT025 BKN040
      TEMPO 1318/1321 3SM -SHSN BLSN BKN025 OVC040
     FM140000 29012KT P6SM BKN035
     FM140600 28007KT P6SM SCT035
     FM141400 17005KT P6SM SCT040 BKN250=

USA.gov is the U.S. government's official web portal to all federal, state and local government web resources and services.